EGPK/PIK METAR and TAF weather

Enter ICAO airport designator
Station Type Date Time Source
EGPK METAR 2022/11/26 09:50 UTC NOAA

EGPK 260950Z 18016KT 9999 -RA SCT023 BKN038 12/10 Q1011


Station Type Date Time Source
EGPK Decoded METAR 2022/11/26 09:50 UTC NOAA

Prestwick Airport, United Kingdom (EGPK) 55-30N 004-35W 0M
Nov 26, 2022 - 04:50 AM EST / 2022.11.26 0950 UTC
Wind: from the S (180 degrees) at 18 MPH (16 KT):0
Visibility: greater than 7 mile(s):0
Sky conditions: mostly cloudy
Weather: light rain
Temperature: 53 F (12 C)
Dew Point: 50 F (10 C)
Relative Humidity: 87%
Pressure (altimeter): 29.85 in. Hg (1011 hPa)
ob: EGPK 260950Z 18016KT 9999 -RA SCT023 BKN038 12/10 Q1011
cycle: 10

Station Type Date Time Source
EGPK TAF 2022/11/26 06:09 UTC NOAA

TAF TAF EGPK 260457Z 2606/2706 16012KT 9999 SCT040 PROB40
TEMPO 2606/2608 17015G25KT
TEMPO 2608/2622 18018G30KT 7000 -RA PROB30
TEMPO 2609/2620 4000 RADZ BKN014 PROB30
TEMPO 2620/2622 4000 +RA RADZ BKN009
BECMG 2622/2701 21015G25KT

Example: see airport list